M I D A S
Marine Information and Data Acquisition System
Tripno 1959 of the Zeeleeuw from 2010-09-10 06:21:14 to 2010-09-10 13:56:12
Back to CruiseResearch ActivitiesStationsMapUnderway DataData graphs

EquipmentUnitsComment
TimeDGPSUTC
LatitudeDGPSDM.mWGS84
LongitudeDGPSDM.mWGS84
HeadingGyrodeg 
SOGDGPSknotsSpeed over ground
COGDGPSdegCourse over ground
DepthEcho soundermeters200 kHz
Missing or incorrect values are displayed as -999
Navigation data collected by the RV Zeeleeuw from 2010-09-10 06:23:44 to 2010-09-10 14:10:37
                                                                                    Next 1000 lines
Time Latitude Longitude Heading SOG COG Depth
2010-09-10 06:23:54 51°13.661 2°55.96 114.5 0.3 180 4.8
2010-09-10 06:23:58 51°13.661 2°55.96 113.7 0.2 173 4.9
2010-09-10 06:24:04 51°13.661 2°55.96 113.2 0.1 162 4.9
2010-09-10 06:24:09 51°13.661 2°55.96 112.2 0.1 178 4.9
2010-09-10 06:24:14 51°13.66 2°55.96 111.4 -999 38 5
2010-09-10 06:24:19 51°13.66 2°55.96 110.8 0.2 301 4.9
2010-09-10 06:24:24 51°13.66 2°55.959 110.5 0.5 289 4.9
2010-09-10 06:24:29 51°13.661 2°55.957 110.4 0.7 295 4.8
2010-09-10 06:24:34 51°13.662 2°55.955 110.4 1 289 5
2010-09-10 06:24:39 51°13.663 2°55.952 110.5 1.2 288 5
2010-09-10 06:24:44 51°13.664 2°55.949 110.8 1.5 290 5.1
2010-09-10 06:24:49 51°13.665 2°55.946 111.1 1.8 293 4.8
2010-09-10 06:24:55 51°13.666 2°55.941 111.8 2 293 -999
2010-09-10 06:25:01 51°13.667 2°55.935 112.4 2.2 295 -999
2010-09-10 06:25:06 51°13.669 2°55.93 113 2.5 295 -999
2010-09-10 06:25:12 51°13.671 2°55.924 113.7 2.8 297 -999
2010-09-10 06:25:18 51°13.673 2°55.917 114.5 2.9 297 -999
2010-09-10 06:25:22 51°13.675 2°55.911 114.6 3.1 297 -999
2010-09-10 06:25:28 51°13.677 2°55.904 114.4 3.2 296 -999
2010-09-10 06:25:33 51°13.679 2°55.897 113.6 3.4 296 -999
2010-09-10 06:25:37 51°13.681 2°55.891 112.3 3.5 296 -999
2010-09-10 06:25:42 51°13.683 2°55.884 110.6 3.6 293 -999
2010-09-10 06:25:48 51°13.685 2°55.875 108.5 3.7 291 -999
2010-09-10 06:25:52 51°13.686 2°55.869 106.8 3.7 289 -999
2010-09-10 06:25:57 51°13.688 2°55.86 105.2 4 287 -999
2010-09-10 06:26:02 51°13.689 2°55.851 103.2 4 285 -999
2010-09-10 06:26:08 51°13.691 2°55.841 101 4 284 -999
2010-09-10 06:26:13 51°13.692 2°55.833 98.9 4.1 281 -999
2010-09-10 06:26:18 51°13.693 2°55.824 97.3 4.1 281 -999
2010-09-10 06:26:22 51°13.694 2°55.817 96 4.1 279 -999
2010-09-10 06:26:27 51°13.695 2°55.808 94.7 4.2 278 -999
2010-09-10 06:26:33 51°13.696 2°55.797 92.9 4.1 276 -999
2010-09-10 06:26:38 51°13.696 2°55.788 90.3 4.1 273 -999
2010-09-10 06:26:42 51°13.696 2°55.78 87.4 4 270 -999
2010-09-10 06:26:47 51°13.695 2°55.772 84.4 3.8 267 -999
2010-09-10 06:26:53 51°13.695 2°55.763 81.8 3.5 265 -999
2010-09-10 06:26:58 51°13.694 2°55.755 79.9 3.4 265 -999
2010-09-10 06:27:02 51°13.694 2°55.75 78.6 3.1 264 -999
2010-09-10 06:27:07 51°13.694 2°55.744 77.7 2.7 265 11.9
2010-09-10 06:27:12 51°13.694 2°55.739 76.8 1.8 267 11.7
2010-09-10 06:27:17 51°13.694 2°55.737 75.6 1 276 11.7
2010-09-10 06:27:22 51°13.694 2°55.736 72.7 0.6 296 11.8
2010-09-10 06:27:26 51°13.695 2°55.736 68.7 0.5 355 11.8
2010-09-10 06:27:32 51°13.695 2°55.737 65 0.6 27 11.6
2010-09-10 06:27:37 51°13.696 2°55.738 60.1 0.9 29 11.6
2010-09-10 06:27:42 51°13.698 2°55.739 54 1.2 32 11.7
2010-09-10 06:27:47 51°13.699 2°55.741 49.1 1.4 31 11.8
2010-09-10 06:27:51 51°13.701 2°55.742 44.3 1.6 33 11.6
2010-09-10 06:27:56 51°13.703 2°55.744 40.6 1.8 30 11.4
2010-09-10 06:28:01 51°13.705 2°55.746 36 1.9 29 11.9
2010-09-10 06:28:07 51°13.708 2°55.748 31.2 1.8 24 12.4
2010-09-10 06:28:11 51°13.71 2°55.75 26.9 1.6 26 12.4
2010-09-10 06:28:16 51°13.711 2°55.751 24.2 1.2 32 12
2010-09-10 06:28:21 51°13.712 2°55.752 21.8 0.7 32 12.2
2010-09-10 06:28:26 51°13.712 2°55.752 18.6 0.3 61 12.2
2010-09-10 06:28:31 51°13.712 2°55.752 15.7 0.3 154 12.1
2010-09-10 06:28:35 51°13.711 2°55.753 14.3 0.7 172 12.1
2010-09-10 06:28:41 51°13.71 2°55.753 13 1 178 12.2
2010-09-10 06:28:46 51°13.708 2°55.754 12 1.3 179 12
2010-09-10 06:28:51 51°13.706 2°55.754 11.4 1.5 184 -999
2010-09-10 06:28:57 51°13.703 2°55.754 11 1.5 178 -999
2010-09-10 06:29:03 51°13.7 2°55.753 11.7 1.6 185 -999
2010-09-10 06:29:08 51°13.699 2°55.754 13.2 0.9 176 -999
2010-09-10 06:29:13 51°13.699 2°55.754 14.3 0.3 90 -999
2010-09-10 06:29:18 51°13.701 2°55.755 12.1 1 18 -999
2010-09-10 06:29:23 51°13.704 2°55.755 7.2 1.8 8 -999
2010-09-10 06:29:28 51°13.708 2°55.755 0.9 2.5 2 -999
2010-09-10 06:29:32 51°13.711 2°55.755 354.1 3.2 355 -999
2010-09-10 06:29:38 51°13.717 2°55.752 348.5 3.5 345 4.6
2010-09-10 06:29:43 51°13.722 2°55.749 341.1 3.9 340 -999
2010-09-10 06:29:48 51°13.728 2°55.744 334.7 4.4 333 11.2
2010-09-10 06:29:52 51°13.732 2°55.74 332.2 4.7 333 10.7
2010-09-10 06:29:57 51°13.738 2°55.734 329.9 4.8 329 10.1
2010-09-10 06:30:02 51°13.744 2°55.728 327.3 5.1 328 9.9
2010-09-10 06:30:07 51°13.75 2°55.722 325.5 5.4 326 9.5
2010-09-10 06:30:12 51°13.757 2°55.715 324.5 5.6 326 9.1
2010-09-10 06:30:16 51°13.762 2°55.709 323.8 5.7 325 8.9
2010-09-10 06:30:21 51°13.768 2°55.702 323.6 5.7 325 8.7
2010-09-10 06:30:26 51°13.775 2°55.694 323.5 5.8 324 9.2
2010-09-10 06:30:31 51°13.782 2°55.686 323.5 5.9 323 9.4
2010-09-10 06:30:36 51°13.788 2°55.678 323.8 5.9 323 9.4
2010-09-10 06:30:40 51°13.793 2°55.672 323.8 5.9 323 9.7
2010-09-10 06:30:45 51°13.8 2°55.664 324 6 322 9.9
2010-09-10 06:30:50 51°13.806 2°55.656 324.2 6.1 323 10.2
2010-09-10 06:30:55 51°13.813 2°55.648 325.2 6.1 324 10.3
2010-09-10 06:31:00 51°13.82 2°55.641 326.7 6.1 326 10.4
2010-09-10 06:31:04 51°13.826 2°55.635 328.8 6 329 10.3
2010-09-10 06:31:09 51°13.833 2°55.628 330.9 6 330 10.1
2010-09-10 06:31:15 51°13.842 2°55.621 332.3 6.1 332 9.9
2010-09-10 06:31:20 51°13.849 2°55.615 333.2 6.1 332 9.8
2010-09-10 06:31:24 51°13.855 2°55.609 333.7 6.1 332 9.7
2010-09-10 06:31:29 51°13.863 2°55.603 334.7 6.3 333 9.6
2010-09-10 06:31:34 51°13.871 2°55.597 335.3 6.7 335 9.1
2010-09-10 06:31:39 51°13.88 2°55.59 335.5 7 335 9.4
2010-09-10 06:31:44 51°13.89 2°55.583 335.7 7.4 334 10
2010-09-10 06:31:49 51°13.9 2°55.577 336.4 7.7 336 9.3
2010-09-10 06:31:54 51°13.91 2°55.569 336.9 8.2 335 9.5
2010-09-10 06:31:59 51°13.921 2°55.562 336.8 8.4 335 9.5
2010-09-10 06:32:04 51°13.932 2°55.554 336.8 8.6 336 9.8
2010-09-10 06:32:09 51°13.943 2°55.546 337.6 8.8 337 9.7
2010-09-10 06:32:14 51°13.954 2°55.537 337.6 9 335 9.5
2010-09-10 06:32:19 51°13.965 2°55.53 337.1 9.1 337 9.7
2010-09-10 06:32:24 51°13.977 2°55.521 336.9 9.3 335 9.5
2010-09-10 06:32:29 51°13.989 2°55.512 337.4 9.4 337 9.5
2010-09-10 06:32:34 51°14.001 2°55.503 336.8 9.7 334 9.2
2010-09-10 06:32:39 51°14.014 2°55.494 335.9 9.7 335 9.1
2010-09-10 06:32:44 51°14.026 2°55.485 335.9 9.8 334 9
2010-09-10 06:32:49 51°14.038 2°55.475 335.9 9.9 334 8.9
2010-09-10 06:32:54 51°14.051 2°55.466 335.8 9.9 335 9.1
2010-09-10 06:32:59 51°14.063 2°55.456 336.1 10 334 9.4
2010-09-10 06:33:04 51°14.076 2°55.446 336.4 10.1 335 8.8
2010-09-10 06:33:09 51°14.088 2°55.436 336 10.3 333 8.7
2010-09-10 06:33:14 51°14.101 2°55.426 335.4 10.3 334 9.1
2010-09-10 06:33:19 51°14.114 2°55.416 335.9 10.3 334 9.1
2010-09-10 06:33:24 51°14.127 2°55.406 336.1 10.4 334 9.2
2010-09-10 06:33:29 51°14.14 2°55.395 335.5 10.5 333 9.2
2010-09-10 06:33:34 51°14.153 2°55.385 335.1 10.6 333 9.4
2010-09-10 06:33:39 51°14.166 2°55.374 334.7 10.8 332 9.2
2010-09-10 06:33:44 51°14.18 2°55.363 334 10.8 333 9.7
2010-09-10 06:33:49 51°14.193 2°55.352 334 10.8 332 -999
2010-09-10 06:33:55 51°14.209 2°55.338 333.9 10.9 332 10
2010-09-10 06:34:00 51°14.222 2°55.327 333.1 10.9 331 9.5
2010-09-10 06:34:04 51°14.232 2°55.318 332.8 10.8 331 9.4
2010-09-10 06:34:09 51°14.246 2°55.307 333.6 10.8 333 9.2
2010-09-10 06:34:14 51°14.259 2°55.295 333.3 10.9 330 9.2
2010-09-10 06:34:20 51°14.275 2°55.28 332.1 11 330 9.4
2010-09-10 06:34:24 51°14.285 2°55.271 331.8 10.9 330 9
2010-09-10 06:34:29 51°14.298 2°55.26 332.4 10.9 332 8.9
2010-09-10 06:34:34 51°14.312 2°55.247 332.3 10.9 331 9.2
2010-09-10 06:34:39 51°14.325 2°55.236 332.7 11 332 8.8
2010-09-10 06:34:44 51°14.338 2°55.223 332.5 11.1 330 9.2
2010-09-10 06:34:49 51°14.352 2°55.211 332.4 11.3 331 8.8
2010-09-10 06:34:54 51°14.366 2°55.2 333 11.3 332 8.9
2010-09-10 06:34:59 51°14.379 2°55.187 333.7 11.4 331 9.1
2010-09-10 06:35:04 51°14.394 2°55.175 333.5 11.5 331 8.9
2010-09-10 06:35:09 51°14.408 2°55.161 331.9 11.7 329 9.1
2010-09-10 06:35:14 51°14.421 2°55.148 330.1 11.6 328 9.1
2010-09-10 06:35:19 51°14.435 2°55.134 329.4 11.6 328 9.2
2010-09-10 06:35:24 51°14.448 2°55.12 329.4 11.6 327 9.2
2010-09-10 06:35:29 51°14.462 2°55.106 329.6 11.8 328 9.2
2010-09-10 06:35:34 51°14.476 2°55.091 329.1 11.9 326 9.4
2010-09-10 06:35:39 51°14.49 2°55.078 329.3 12.1 329 9.4
2010-09-10 06:35:44 51°14.505 2°55.063 329.3 12.2 327 9.6
2010-09-10 06:35:49 51°14.519 2°55.05 329.3 12.3 329 9.6
2010-09-10 06:35:54 51°14.534 2°55.034 329.8 12.5 325 9.7
2010-09-10 06:35:59 51°14.547 2°55.016 327.6 12.6 319 9.9
2010-09-10 06:36:04 51°14.559 2°54.996 324.6 12.7 316 10
2010-09-10 06:36:09 51°14.572 2°54.976 323.8 12.9 316 9.9
2010-09-10 06:36:14 51°14.586 2°54.957 324.6 13.1 318 9.7
2010-09-10 06:36:19 51°14.599 2°54.937 325.2 13.1 317 9.9
2010-09-10 06:36:24 51°14.613 2°54.919 326.4 13.1 320 9.8
2010-09-10 06:36:29 51°14.627 2°54.9 328.8 13.2 320 9.8
2010-09-10 06:36:34 51°14.64 2°54.88 327.8 13.2 317 9.8
2010-09-10 06:36:39 51°14.652 2°54.857 324 13.3 309 9.8
2010-09-10 06:36:44 51°14.662 2°54.833 317.9 13.4 305 9.9
2010-09-10 06:36:49 51°14.672 2°54.808 311.1 13.4 300 9.8
2010-09-10 06:36:54 51°14.68 2°54.781 305.7 13.5 296 9.8
2010-09-10 06:36:59 51°14.687 2°54.753 302 13.5 292 9.8
2010-09-10 06:37:04 51°14.694 2°54.726 298.1 13.5 291 9.8
2010-09-10 06:37:08 51°14.698 2°54.703 295.2 13.6 288 9.7
2010-09-10 06:37:14 51°14.705 2°54.668 292.6 13.7 287 9.7
2010-09-10 06:37:19 51°14.711 2°54.64 291.5 13.7 287 9.7
2010-09-10 06:37:24 51°14.716 2°54.611 291 13.6 286 9.7
2010-09-10 06:37:29 51°14.721 2°54.582 290.5 13.7 286 9.6
2010-09-10 06:37:34 51°14.727 2°54.553 290.7 13.6 287 9.6
2010-09-10 06:37:39 51°14.732 2°54.524 291.6 13.6 286 8.9
2010-09-10 06:37:44 51°14.737 2°54.495 292 13.6 286 8.5
2010-09-10 06:37:49 51°14.742 2°54.466 291 13.5 284 8.4
2010-09-10 06:37:54 51°14.748 2°54.438 290.5 13.5 285 8.5
2010-09-10 06:37:59 51°14.752 2°54.408 289.7 13.6 284 8.4
2010-09-10 06:38:04 51°14.757 2°54.379 289.1 13.6 284 8.5
2010-09-10 06:38:09 51°14.761 2°54.35 288.3 13.7 283 8.5
2010-09-10 06:38:14 51°14.766 2°54.32 288.1 13.8 284 8.4
2010-09-10 06:38:19 51°14.77 2°54.29 287.8 13.8 283 8.3
2010-09-10 06:38:25 51°14.775 2°54.255 287.3 13.8 283 8.3
2010-09-10 06:38:29 51°14.779 2°54.231 287.4 13.8 283 8.4
2010-09-10 06:38:34 51°14.783 2°54.202 287.4 13.8 283 8.4
2010-09-10 06:38:39 51°14.788 2°54.172 287.9 13.9 284 8.3
2010-09-10 06:38:44 51°14.793 2°54.142 288.7 13.9 285 8.1
2010-09-10 06:38:49 51°14.798 2°54.113 289.1 13.9 285 8.1
2010-09-10 06:38:53 51°14.802 2°54.09 289.5 13.7 285 8.1
2010-09-10 06:38:59 51°14.808 2°54.055 289.7 13.7 285 8.1
2010-09-10 06:39:04 51°14.812 2°54.025 288.3 13.8 282 7.9
2010-09-10 06:39:09 51°14.816 2°53.996 286.7 13.7 282 7.8
2010-09-10 06:39:14 51°14.819 2°53.966 285.6 13.7 280 7.8
2010-09-10 06:39:19 51°14.822 2°53.936 284.7 13.7 280 7.8
2010-09-10 06:39:24 51°14.825 2°53.906 283.5 13.7 278 8.1
2010-09-10 06:39:29 51°14.828 2°53.876 282.7 13.8 279 7.8
2010-09-10 06:39:33 51°14.83 2°53.852 282.3 13.8 278 7.9
2010-09-10 06:39:39 51°14.833 2°53.816 281.5 13.7 277 8.1
2010-09-10 06:39:44 51°14.835 2°53.786 281 13.7 278 8
2010-09-10 06:39:49 51°14.838 2°53.755 281.6 13.8 278 8.2
2010-09-10 06:39:54 51°14.841 2°53.725 282 13.8 279 8.1
2010-09-10 06:39:59 51°14.844 2°53.695 282.5 13.8 279 8.1
2010-09-10 06:40:04 51°14.848 2°53.665 283.2 13.9 280 8
2010-09-10 06:40:09 51°14.851 2°53.635 283.9 13.9 281 8.2
2010-09-10 06:40:13 51°14.854 2°53.611 284.5 13.9 280 8.1
2010-09-10 06:40:19 51°14.859 2°53.575 284.6 13.9 283 8.1
2010-09-10 06:40:24 51°14.862 2°53.545 285.3 13.9 281 8
2010-09-10 06:40:29 51°14.866 2°53.515 285.8 13.8 282 8.2
2010-09-10 06:40:34 51°14.871 2°53.485 286.1 13.8 282 8
2010-09-10 06:40:39 51°14.875 2°53.455 285.9 13.9 283 8.1
2010-09-10 06:40:44 51°14.879 2°53.425 286 13.9 282 8.1
2010-09-10 06:40:49 51°14.883 2°53.395 286.1 13.9 283 8.3
2010-09-10 06:40:53 51°14.886 2°53.37 286.1 13.9 282 8.2
2010-09-10 06:40:59 51°14.891 2°53.334 285.7 13.9 281 8.2
2010-09-10 06:41:04 51°14.894 2°53.304 285 13.9 281 8.2
2010-09-10 06:41:09 51°14.898 2°53.274 284.4 13.9 280 8.2
2010-09-10 06:41:14 51°14.901 2°53.244 283.6 13.9 280 8.3
2010-09-10 06:41:19 51°14.904 2°53.213 283.1 14 279 8.3
2010-09-10 06:41:24 51°14.907 2°53.183 282.1 14 279 8.2
2010-09-10 06:41:29 51°14.91 2°53.153 282.3 14 280 8.2
2010-09-10 06:41:33 51°14.912 2°53.128 282.4 13.9 280 8.2
2010-09-10 06:41:39 51°14.916 2°53.092 282.6 13.9 280 8.3
2010-09-10 06:41:44 51°14.92 2°53.062 283.9 13.8 281 8.3
2010-09-10 06:41:49 51°14.923 2°53.031 284.1 13.9 281 8.4
2010-09-10 06:41:54 51°14.925 2°53 281.7 14.1 276 8.2
2010-09-10 06:41:59 51°14.927 2°52.97 279.8 14 277 8.3
2010-09-10 06:42:04 51°14.928 2°52.939 278.6 14 273 8.5
2010-09-10 06:42:09 51°14.929 2°52.908 276.9 14 274 8.5
2010-09-10 06:42:13 51°14.93 2°52.884 275.9 14 272 8.4
2010-09-10 06:42:19 51°14.93 2°52.847 274.5 13.9 272 8.4
2010-09-10 06:42:24 51°14.931 2°52.816 274 13.9 271 8.4
2010-09-10 06:42:29 51°14.931 2°52.785 273.1 13.9 271 8.7
2010-09-10 06:42:34 51°14.931 2°52.754 272.7 13.9 270 8.7
2010-09-10 06:42:39 51°14.931 2°52.723 272.5 14 269 8.5
2010-09-10 06:42:44 51°14.931 2°52.692 272.3 14 271 8.4
2010-09-10 06:42:49 51°14.931 2°52.66 272.3 14.1 270 8.7
2010-09-10 06:42:53 51°14.932 2°52.636 272.7 14 272 8.5
2010-09-10 06:42:59 51°14.932 2°52.598 273.3 14.1 271 8.5
2010-09-10 06:43:04 51°14.933 2°52.567 273.7 14.1 273 8.5
2010-09-10 06:43:09 51°14.934 2°52.537 274.2 14 272 8.2
2010-09-10 06:43:14 51°14.935 2°52.506 274.3 14 273 8.5
2010-09-10 06:43:19 51°14.936 2°52.475 274.4 14 273 8.6
2010-09-10 06:43:24 51°14.936 2°52.444 274.5 14 272 8.6
2010-09-10 06:43:29 51°14.937 2°52.413 274.4 14 272 8.7
2010-09-10 06:43:33 51°14.938 2°52.388 274.3 14 272 8.5
2010-09-10 06:43:39 51°14.939 2°52.351 273.7 14 272 8.8
2010-09-10 06:43:44 51°14.939 2°52.32 273.7 13.9 272 8.9
2010-09-10 06:43:49 51°14.94 2°52.289 273.7 14 272 8.4
2010-09-10 06:43:54 51°14.94 2°52.258 273.7 14.1 272 8.6
2010-09-10 06:43:59 51°14.941 2°52.227 274 14 272 8.7
2010-09-10 06:44:04 51°14.942 2°52.196 274.1 14 272 8.6
2010-09-10 06:44:09 51°14.943 2°52.165 274.2 14 272 8.9
2010-09-10 06:44:14 51°14.943 2°52.134 274.1 14 273 8.5
2010-09-10 06:44:19 51°14.944 2°52.104 274.4 14 273 8.8
2010-09-10 06:44:24 51°14.945 2°52.073 274.4 14 272 9.1
2010-09-10 06:44:29 51°14.946 2°52.042 274.1 14 272 9
2010-09-10 06:44:34 51°14.946 2°52.011 273.4 14 271 9
2010-09-10 06:44:39 51°14.947 2°51.98 273 14 272 9
2010-09-10 06:44:44 51°14.948 2°51.949 273.2 14 272 8.8
2010-09-10 06:44:49 51°14.949 2°51.918 273.6 14 273 9.2
2010-09-10 06:44:54 51°14.95 2°51.887 274 13.9 273 9
2010-09-10 06:44:59 51°14.95 2°51.857 274.2 13.9 273 8.9
2010-09-10 06:45:04 51°14.951 2°51.825 274.2 14 273 9.4
2010-09-10 06:45:09 51°14.952 2°51.795 274.4 14 273 9
2010-09-10 06:45:14 51°14.953 2°51.764 274.3 13.9 273 9.5
2010-09-10 06:45:19 51°14.954 2°51.733 274.3 14 273 9.3
2010-09-10 06:45:24 51°14.955 2°51.702 274 14.1 273 9.5
2010-09-10 06:45:29 51°14.956 2°51.671 273.8 14 273 9.5
2010-09-10 06:45:34 51°14.957 2°51.64 274 13.9 272 9.5
2010-09-10 06:45:39 51°14.958 2°51.609 274.1 13.9 273 9.7
2010-09-10 06:45:44 51°14.959 2°51.578 274.4 14 273 9.6
2010-09-10 06:45:49 51°14.96 2°51.546 274.3 14.1 273 9.8
2010-09-10 06:45:54 51°14.961 2°51.515 274.3 14.1 273 9.8
2010-09-10 06:45:59 51°14.961 2°51.485 274.3 14.1 273 9.8
2010-09-10 06:46:05 51°14.963 2°51.447 274.3 14.1 273 10
2010-09-10 06:46:09 51°14.964 2°51.422 274.4 14.1 273 9.6
2010-09-10 06:46:14 51°14.964 2°51.392 274.5 14 272 10.1
2010-09-10 06:46:19 51°14.965 2°51.361 274.3 14 273 10.1
2010-09-10 06:46:24 51°14.966 2°51.33 274.1 14 273 9.9
2010-09-10 06:46:29 51°14.967 2°51.299 273.9 13.9 272 9.9
2010-09-10 06:46:34 51°14.968 2°51.268 273.7 14 273 10.2
2010-09-10 06:46:39 51°14.969 2°51.238 273.7 13.9 273 10.1
2010-09-10 06:46:44 51°14.971 2°51.207 275.5 13.8 278 10.1
2010-09-10 06:46:49 51°14.974 2°51.177 278.8 14 279 10.4
2010-09-10 06:46:54 51°14.978 2°51.147 280.9 13.9 282 10.2
2010-09-10 06:46:59 51°14.982 2°51.117 282.7 13.8 282 10.3
2010-09-10 06:47:04 51°14.988 2°51.089 286.6 13.6 289 10.4
2010-09-10 06:47:09 51°14.996 2°51.062 293.3 13.5 294 10.4
2010-09-10 06:47:14 51°15.005 2°51.035 298.6 13.6 297 10.4
2010-09-10 06:47:19 51°15.012 2°51.008 299.2 13.5 296 10.7
2010-09-10 06:47:24 51°15.022 2°50.982 302 13.5 300 10.5
2010-09-10 06:47:29 51°15.03 2°50.956 303.5 13.4 299 10.5
2010-09-10 06:47:34 51°15.041 2°50.93 304.9 13.6 302 10.5
2010-09-10 06:47:39 51°15.051 2°50.905 306.3 13.6 302 10.5
2010-09-10 06:47:44 51°15.061 2°50.88 308 13.6 305 10.6
2010-09-10 06:47:49 51°15.072 2°50.855 309.3 13.5 304 10.6
2010-09-10 06:47:54 51°15.082 2°50.831 310.5 13.4 306 10.9
2010-09-10 06:47:59 51°15.093 2°50.807 311.4 13.5 306 10.8
2010-09-10 06:48:04 51°15.105 2°50.783 311.7 13.5 307 10.6
2010-09-10 06:48:09 51°15.116 2°50.758 312.6 13.6 306 11.1
2010-09-10 06:48:14 51°15.128 2°50.735 312.9 13.6 307 10.5
2010-09-10 06:48:19 51°15.139 2°50.711 313.3 13.6 308 11
2010-09-10 06:48:24 51°15.15 2°50.686 313.2 13.6 307 10.8
2010-09-10 06:48:29 51°15.162 2°50.663 313.1 13.5 308 11
2010-09-10 06:48:34 51°15.173 2°50.639 313.6 13.6 307 11.1
2010-09-10 06:48:39 51°15.184 2°50.615 313.4 13.6 307 11.2
2010-09-10 06:48:44 51°15.196 2°50.591 313.3 13.6 308 11.1
2010-09-10 06:48:49 51°15.208 2°50.567 313.4 13.6 308 11.2
2010-09-10 06:48:54 51°15.219 2°50.544 313.6 13.6 308 11.1
2010-09-10 06:48:59 51°15.231 2°50.52 313.7 13.6 308 11.2
2010-09-10 06:49:04 51°15.242 2°50.496 314 13.7 308 11.2
2010-09-10 06:49:09 51°15.254 2°50.472 314 13.6 308 11.1
2010-09-10 06:49:14 51°15.266 2°50.448 313.8 13.7 308 11.2
2010-09-10 06:49:19 51°15.277 2°50.425 313.8 13.7 308 11.1
2010-09-10 06:49:24 51°15.289 2°50.401 314 13.6 309 11.2
2010-09-10 06:49:29 51°15.302 2°50.378 315.4 13.6 311 11.3
2010-09-10 06:49:34 51°15.314 2°50.355 316.4 13.7 311 11.3
2010-09-10 06:49:39 51°15.327 2°50.333 317.3 13.7 312 11.4
2010-09-10 06:49:44 51°15.339 2°50.311 318.3 13.7 312 11.4
2010-09-10 06:49:49 51°15.352 2°50.288 318.7 13.6 312 11.5
2010-09-10 06:49:54 51°15.364 2°50.267 318.6 13.4 312 11.1
2010-09-10 06:49:59 51°15.375 2°50.247 319 12.1 313 11.2
2010-09-10 06:50:04 51°15.386 2°50.228 319.2 11.5 313 11.4
2010-09-10 06:50:09 51°15.396 2°50.211 319.6 11 313 11.4
2010-09-10 06:50:14 51°15.406 2°50.194 319.8 10.3 312 11.5
2010-09-10 06:50:19 51°15.415 2°50.178 319.8 9.7 313 11.5
2010-09-10 06:50:24 51°15.424 2°50.163 319.9 9.1 312 11.5
2010-09-10 06:50:29 51°15.432 2°50.149 319.7 8.7 312 11.3
2010-09-10 06:50:34 51°15.439 2°50.135 318.9 8.3 311 11.4
2010-09-10 06:50:39 51°15.446 2°50.122 317.6 7.9 309 11.4
2010-09-10 06:50:45 51°15.453 2°50.107 315.8 7.3 307 11.6
2010-09-10 06:50:49 51°15.457 2°50.097 313.7 6.9 304 11.5
2010-09-10 06:50:54 51°15.462 2°50.085 311.5 6.4 302 11.5
2010-09-10 06:50:59 51°15.465 2°50.074 309 6 300 11.6
2010-09-10 06:51:04 51°15.468 2°50.064 306.8 5.2 296 11.6
2010-09-10 06:51:09 51°15.471 2°50.053 303.6 4.8 292 11.6
2010-09-10 06:51:14 51°15.473 2°50.045 300.1 4.4 290 11.5
2010-09-10 06:51:19 51°15.474 2°50.037 296.4 3.9 286 11.5
2010-09-10 06:51:24 51°15.475 2°50.03 292.2 3.3 282 11.6
2010-09-10 06:51:29 51°15.476 2°50.023 288.6 3 280 11.6
2010-09-10 06:51:33 51°15.476 2°50.018 284.8 2.7 276 11.5
2010-09-10 06:51:39 51°15.477 2°50.011 282.1 2.5 275 11.7
2010-09-10 06:51:44 51°15.477 2°50.007 281 2.1 275 11.6
2010-09-10 06:51:49 51°15.477 2°50.003 280.8 1.8 273 11.5
2010-09-10 06:51:54 51°15.477 2°50 280.6 1.4 269 11.6
2010-09-10 06:51:59 51°15.476 2°49.998 280.7 1.1 266 11.5
2010-09-10 06:52:04 51°15.476 2°49.996 280.4 0.8 261 11.5
2010-09-10 06:52:09 51°15.476 2°49.995 280.2 0.6 261 11.6
2010-09-10 06:52:13 51°15.476 2°49.994 280.4 0.5 257 11.6
2010-09-10 06:52:19 51°15.475 2°49.992 281.7 0.6 243 4.5
2010-09-10 06:52:25 51°15.475 2°49.991 283.2 0.5 249 -999
2010-09-10 06:52:30 51°15.475 2°49.99 284.9 0.5 250 4.6
2010-09-10 06:52:36 51°15.475 2°49.988 286.4 0.6 251 -999
2010-09-10 06:52:41 51°15.475 2°49.987 288.3 0.6 262 -999
2010-09-10 06:52:46 51°15.475 2°49.986 290 0.6 263 4.5
2010-09-10 06:52:51 51°15.474 2°49.985 291.2 0.5 262 4.6
2010-09-10 06:52:56 51°15.474 2°49.983 292.6 0.6 254 10.7
2010-09-10 06:53:01 51°15.474 2°49.982 294.1 0.6 266 11.7
2010-09-10 06:53:06 51°15.474 2°49.981 295.6 0.6 239 11.7
2010-09-10 06:53:11 51°15.474 2°49.979 296.7 0.6 250 11.8
2010-09-10 06:53:16 51°15.473 2°49.978 297.5 0.6 258 4.5
2010-09-10 06:53:21 51°15.473 2°49.977 298.4 0.6 254 4.5
2010-09-10 06:53:25 51°15.473 2°49.976 299.3 0.6 258 -999
2010-09-10 06:53:31 51°15.473 2°49.974 300.8 0.5 271 11.6
2010-09-10 06:53:36 51°15.473 2°49.973 302 0.6 254 4.5
2010-09-10 06:53:41 51°15.472 2°49.972 303 0.6 252 4.6
2010-09-10 06:53:45 51°15.472 2°49.971 304.1 0.6 259 4.4
2010-09-10 06:53:50 51°15.472 2°49.97 305.3 0.6 266 11.7
2010-09-10 06:53:56 51°15.471 2°49.968 306.5 0.7 249 11.6
2010-09-10 06:54:01 51°15.472 2°49.967 307.9 0.5 276 11.5
2010-09-10 06:54:05 51°15.471 2°49.966 309.2 0.6 254 11.7
2010-09-10 06:54:10 51°15.471 2°49.965 310.7 0.6 253 11.4
2010-09-10 06:54:15 51°15.471 2°49.963 312.2 0.7 258 11.5
2010-09-10 06:54:20 51°15.47 2°49.962 313.1 0.7 259 11.7
2010-09-10 06:54:25 51°15.47 2°49.96 314.4 0.7 255 11.6
2010-09-10 06:54:29 51°15.47 2°49.959 315.8 0.6 252 11.6
2010-09-10 06:54:34 51°15.469 2°49.958 317.1 0.6 244 11.6
2010-09-10 06:54:39 51°15.469 2°49.957 318.4 0.6 253 11.5
2010-09-10 06:54:44 51°15.469 2°49.955 319.5 0.8 252 11.5
2010-09-10 06:54:49 51°15.469 2°49.953 320.9 0.8 266 11.5
2010-09-10 06:54:54 51°15.468 2°49.952 322.3 0.7 258 11.6
2010-09-10 06:54:59 51°15.468 2°49.951 323.3 0.6 252 11.6
2010-09-10 06:55:04 51°15.468 2°49.949 324.8 0.7 254 11.5
2010-09-10 06:55:09 51°15.468 2°49.947 326 0.8 256 11.6
2010-09-10 06:55:14 51°15.467 2°49.946 326.8 0.7 257 11.6
2010-09-10 06:55:19 51°15.467 2°49.945 327.8 0.7 263 11.5
2010-09-10 06:55:24 51°15.467 2°49.943 328.3 0.8 255 11.6
2010-09-10 06:55:29 51°15.466 2°49.941 329.6 0.7 255 11.5
2010-09-10 06:55:33 51°15.466 2°49.94 330.3 0.7 253 11.5
2010-09-10 06:55:39 51°15.465 2°49.938 331.5 0.7 250 11.7
2010-09-10 06:55:44 51°15.465 2°49.937 332.4 0.7 244 11.5
2010-09-10 06:55:49 51°15.465 2°49.936 333.4 0.7 247 11.5
2010-09-10 06:55:54 51°15.465 2°49.935 334.4 0.6 250 11.8
2010-09-10 06:55:59 51°15.465 2°49.933 335.2 0.7 244 11.5
2010-09-10 06:56:04 51°15.465 2°49.932 336.1 0.7 258 11.5
2010-09-10 06:56:09 51°15.464 2°49.93 337.5 0.8 252 11.6
2010-09-10 06:56:13 51°15.464 2°49.929 338.4 0.7 249 11.6
2010-09-10 06:56:19 51°15.464 2°49.928 339.3 0.7 246 11.6
2010-09-10 06:56:24 51°15.463 2°49.926 339.8 0.7 253 11.6
2010-09-10 06:56:29 51°15.463 2°49.924 340.5 0.7 252 11.6
2010-09-10 06:56:34 51°15.463 2°49.922 341.2 0.7 258 11.6
2010-09-10 06:56:39 51°15.462 2°49.921 341.9 0.7 261 11.6
2010-09-10 06:56:44 51°15.462 2°49.92 342.8 0.7 256 11.6
2010-09-10 06:56:49 51°15.462 2°49.918 344 0.7 257 11.5
2010-09-10 06:56:54 51°15.462 2°49.916 344.9 0.7 258 11.5
2010-09-10 06:56:59 51°15.461 2°49.915 345.4 0.7 258 11.6
2010-09-10 06:57:04 51°15.461 2°49.913 345.8 0.7 254 11.5
2010-09-10 06:57:09 51°15.461 2°49.912 346.3 0.6 253 11.5
2010-09-10 06:57:14 51°15.46 2°49.91 346.5 0.7 260 11.5
2010-09-10 06:57:19 51°15.46 2°49.909 346.9 0.7 261 11.4
2010-09-10 06:57:24 51°15.46 2°49.908 347.6 0.7 251 11.4
2010-09-10 06:57:29 51°15.459 2°49.906 348 0.7 251 11.4
2010-09-10 06:57:34 51°15.459 2°49.905 348.5 0.7 251 11.7
2010-09-10 06:57:39 51°15.459 2°49.903 348.9 0.7 251 11.6
2010-09-10 06:57:44 51°15.459 2°49.901 349 0.7 262 11.8
2010-09-10 06:57:49 51°15.459 2°49.9 348.9 0.7 263 11.7
2010-09-10 06:57:54 51°15.459 2°49.898 349.4 0.7 262 11.6
2010-09-10 06:57:59 51°15.458 2°49.896 349.4 0.7 259 -999
2010-09-10 06:58:05 51°15.458 2°49.895 349.3 0.7 252 -999
2010-09-10 06:58:10 51°15.458 2°49.893 349.9 0.7 257 -999
2010-09-10 06:58:15 51°15.457 2°49.892 350.1 0.7 246 11.6
2010-09-10 06:58:20 51°15.457 2°49.891 350.2 0.7 243 11.4
2010-09-10 06:58:25 51°15.457 2°49.89 350.7 0.7 254 11.6
2010-09-10 06:58:29 51°15.456 2°49.888 350.9 0.7 254 11.6
2010-09-10 06:58:34 51°15.456 2°49.887 351.1 0.7 252 11.5
2010-09-10 06:58:39 51°15.456 2°49.885 351.1 0.7 252 11.4
2010-09-10 06:58:44 51°15.456 2°49.884 351.2 0.7 246 11.4
2010-09-10 06:58:49 51°15.455 2°49.883 351.3 0.7 249 11.7
2010-09-10 06:58:54 51°15.455 2°49.881 351.2 0.7 257 11.5
2010-09-10 06:58:59 51°15.455 2°49.88 351.1 0.7 253 11.6
2010-09-10 06:59:04 51°15.455 2°49.879 351.2 0.7 249 11.6
2010-09-10 06:59:09 51°15.454 2°49.877 351.3 0.6 252 11.5
2010-09-10 06:59:13 51°15.454 2°49.876 351.2 0.7 257 11.6
2010-09-10 06:59:19 51°15.454 2°49.874 351.2 0.6 259 11.3
2010-09-10 06:59:24 51°15.454 2°49.873 351.4 0.6 257 11.5
2010-09-10 06:59:29 51°15.453 2°49.872 351.8 0.7 256 11.7
2010-09-10 06:59:34 51°15.453 2°49.87 352.3 0.7 255 11.5
2010-09-10 06:59:38 51°15.453 2°49.869 352.5 0.6 257 11.5
2010-09-10 06:59:44 51°15.453 2°49.867 352.7 0.7 257 11.5
2010-09-10 06:59:49 51°15.452 2°49.866 352.8 0.6 256 11.6
2010-09-10 06:59:53 51°15.452 2°49.865 353 0.7 260 11.6
2010-09-10 06:59:58 51°15.452 2°49.863 352.9 0.7 255 11.5
2010-09-10 07:00:04 51°15.451 2°49.862 353.3 0.7 248 11.3
2010-09-10 07:00:09 51°15.451 2°49.86 353.6 0.7 252 11.6
2010-09-10 07:00:13 51°15.451 2°49.86 353.7 0.6 255 11.5
2010-09-10 07:00:19 51°15.45 2°49.857 353.6 0.8 252 11.6
2010-09-10 07:00:23 51°15.45 2°49.857 353.7 0.6 261 11.4
2010-09-10 07:00:30 51°15.451 2°49.854 353.6 0.8 285 11.5
2010-09-10 07:00:34 51°15.452 2°49.853 351.9 1 303 11.5
2010-09-10 07:00:39 51°15.453 2°49.85 349.6 1.4 308 11.5
2010-09-10 07:00:44 51°15.454 2°49.848 346.4 1.7 316 11.5
2010-09-10 07:00:49 51°15.456 2°49.844 341.6 2.2 313 11.5
2010-09-10 07:00:54 51°15.459 2°49.84 335.6 2.6 312 11.6
2010-09-10 07:00:59 51°15.461 2°49.834 328.8 3.1 306 11.5
2010-09-10 07:01:04 51°15.464 2°49.827 321.7 3.5 302 11.6
2010-09-10 07:01:09 51°15.466 2°49.82 316.4 3.8 297 11.5
2010-09-10 07:01:14 51°15.468 2°49.811 309.3 4.1 293 11.6
2010-09-10 07:01:19 51°15.47 2°49.801 300.6 4.5 284 11.7
2010-09-10 07:01:24 51°15.471 2°49.791 293.4 4.7 282 11.5
2010-09-10 07:01:29 51°15.472 2°49.78 286.3 5 275 11.4
2010-09-10 07:01:34 51°15.472 2°49.769 279.2 5.2 271 11.6
2010-09-10 07:01:38 51°15.472 2°49.76 272.3 5.3 267 11.6
2010-09-10 07:01:44 51°15.47 2°49.746 265.3 5.5 260 11.6
2010-09-10 07:01:49 51°15.468 2°49.734 258.1 5.7 255 11.8
2010-09-10 07:01:54 51°15.465 2°49.721 253.1 5.9 253 11.6
2010-09-10 07:01:59 51°15.461 2°49.708 249.4 6.2 247 11.6
2010-09-10 07:02:04 51°15.458 2°49.695 247 6.4 247 11.7
2010-09-10 07:02:09 51°15.454 2°49.682 243.6 6.7 243 11.6
2010-09-10 07:02:14 51°15.449 2°49.668 241.4 6.9 243 11.5
2010-09-10 07:02:19 51°15.444 2°49.655 239 7.1 240 11.6
2010-09-10 07:02:24 51°15.439 2°49.641 237.4 7.4 236 11.6
2010-09-10 07:02:29 51°15.433 2°49.627 234.5 7.6 235 11.5
2010-09-10 07:02:34 51°15.427 2°49.613 232.2 7.7 235 11.3
2010-09-10 07:02:38 51°15.421 2°49.603 229.9 7.9 231 11.6
2010-09-10 07:02:44 51°15.413 2°49.586 227.2 8.1 231 11.5
2010-09-10 07:02:49 51°15.405 2°49.573 224.9 8.1 228 11.5
2010-09-10 07:02:54 51°15.396 2°49.56 223 8.4 226 11.6
2010-09-10 07:02:58 51°15.39 2°49.549 222.7 8.6 226 11.5
2010-09-10 07:03:04 51°15.38 2°49.532 222.6 8.8 227 11.6
2010-09-10 07:03:09 51°15.372 2°49.518 223.1 8.9 226 11.5
2010-09-10 07:03:14 51°15.364 2°49.503 223.9 9 228 11.5
2010-09-10 07:03:19 51°15.356 2°49.489 224.9 9 228 11.5
2010-09-10 07:03:24 51°15.348 2°49.473 225.8 9.1 230 11.6
2010-09-10 07:03:29 51°15.34 2°49.457 227.3 9.1 231 11.4
2010-09-10 07:03:34 51°15.332 2°49.441 228.9 9.1 232 11.5
2010-09-10 07:03:38 51°15.326 2°49.428 230.6 9.3 234 11.5
2010-09-10 07:03:44 51°15.317 2°49.407 232.2 9.4 235 11.4
2010-09-10 07:03:49 51°15.309 2°49.39 233.6 9.3 237 11.4
2010-09-10 07:03:54 51°15.302 2°49.372 235 9.3 238 11.6
2010-09-10 07:03:58 51°15.297 2°49.358 236.6 9.5 238 11.4
2010-09-10 07:04:04 51°15.288 2°49.337 238.4 9.3 237 11.5
2010-09-10 07:04:09 51°15.282 2°49.321 237.1 8.8 237 11.5
2010-09-10 07:04:14 51°15.274 2°49.308 232 8.1 228 11.4
2010-09-10 07:04:19 51°15.267 2°49.297 223.4 7.7 224 11.3
2010-09-10 07:04:24 51°15.259 2°49.288 214.5 6.9 216 11.4
2010-09-10 07:04:29 51°15.251 2°49.281 208.6 6.6 211 11.5
2010-09-10 07:04:34 51°15.244 2°49.275 201.8 6.2 207 11.5
2010-09-10 07:04:39 51°15.236 2°49.272 194.7 5.6 197 11.5
2010-09-10 07:04:44 51°15.229 2°49.268 187.7 5.4 195 11.6
2010-09-10 07:04:50 51°15.221 2°49.267 180.8 4.9 186 11.5
2010-09-10 07:04:54 51°15.216 2°49.267 173.6 4.8 184 11.5
2010-09-10 07:04:58 51°15.211 2°49.268 166.9 4.4 175 11.4
2010-09-10 07:05:04 51°15.204 2°49.269 160.3 4.4 170 11.6
2010-09-10 07:05:09 51°15.198 2°49.272 154.7 4.3 165 11.3
2010-09-10 07:05:14 51°15.193 2°49.275 150.8 4.3 163 11.5
2010-09-10 07:05:19 51°15.187 2°49.278 147.4 4.2 158 11.4
2010-09-10 07:05:24 51°15.182 2°49.281 145.5 4.3 157 11.5
2010-09-10 07:05:29 51°15.176 2°49.285 143.2 4.3 157 11.3
2010-09-10 07:05:34 51°15.17 2°49.289 142.2 4.4 155 11.4
2010-09-10 07:05:39 51°15.165 2°49.294 139.7 4.4 152 11.3
2010-09-10 07:05:44 51°15.16 2°49.299 138 4.4 149 11.3
2010-09-10 07:05:49 51°15.155 2°49.304 135.8 4.2 146 11.5
2010-09-10 07:05:54 51°15.15 2°49.31 132.3 4.1 144 11.3
2010-09-10 07:05:58 51°15.148 2°49.314 126.9 3.9 137 11.3
2010-09-10 07:06:04 51°15.144 2°49.322 120.8 3.6 129 11.3
2010-09-10 07:06:09 51°15.141 2°49.328 114.5 3.4 122 11.5
2010-09-10 07:06:14 51°15.14 2°49.335 108.2 3.2 117 11.3
2010-09-10 07:06:18 51°15.138 2°49.34 101.9 3.1 112 11.5
2010-09-10 07:06:24 51°15.138 2°49.347 95.7 2.9 101 11.4
2010-09-10 07:06:29 51°15.138 2°49.354 89.7 2.8 93 11.3
2010-09-10 07:06:34 51°15.139 2°49.36 83.5 2.7 83 11.3
2010-09-10 07:06:39 51°15.14 2°49.365 77.4 2.7 76 11.4
2010-09-10 07:06:44 51°15.141 2°49.37 71.2 2.5 63 11.5
2010-09-10 07:06:49 51°15.143 2°49.375 65 2.6 54 11.4
2010-09-10 07:06:54 51°15.146 2°49.379 58.9 2.6 48 11.4
2010-09-10 07:06:59 51°15.148 2°49.383 52.9 2.5 41 11.3
2010-09-10 07:07:04 51°15.152 2°49.386 46.7 2.7 33 11.4
2010-09-10 07:07:09 51°15.156 2°49.389 42.3 3 28 11.4
2010-09-10 07:07:14 51°15.159 2°49.392 39.5 3.1 27 11.3
2010-09-10 07:07:19 51°15.164 2°49.395 37.6 3.2 25 11.3
2010-09-10 07:07:24 51°15.168 2°49.398 36.5 3.4 24 11.2
2010-09-10 07:07:29 51°15.172 2°49.401 35.4 3.3 25 11.4
2010-09-10 07:07:34 51°15.177 2°49.404 34.6 3.3 23 11.4
2010-09-10 07:07:39 51°15.181 2°49.407 34.4 3.4 22 11.5
2010-09-10 07:07:44 51°15.185 2°49.41 35.1 3.4 26 11.5
2010-09-10 07:07:49 51°15.189 2°49.413 35.9 3.4 26 11.4
2010-09-10 07:07:54 51°15.194 2°49.416 36.7 3.3 26 11.3
2010-09-10 07:07:58 51°15.197 2°49.419 37.6 3.3 27 11.5
2010-09-10 07:08:04 51°15.202 2°49.423 38.6 3.3 26 11.5
2010-09-10 07:08:09 51°15.206 2°49.427 39.9 3.3 31 11.3
2010-09-10 07:08:14 51°15.211 2°49.431 40.7 3.5 30 11.4
2010-09-10 07:08:19 51°15.215 2°49.435 41.8 3.4 32 11.4
2010-09-10 07:08:24 51°15.219 2°49.439 43 3.4 33 11.4
2010-09-10 07:08:29 51°15.222 2°49.443 44.1 3.4 35 11.4
2010-09-10 07:08:34 51°15.226 2°49.448 45.5 3.4 37 11.5
2010-09-10 07:08:39 51°15.23 2°49.453 46.6 3.5 40 11.3
2010-09-10 07:08:44 51°15.233 2°49.458 47.6 3.4 40 11.3
2010-09-10 07:08:49 51°15.237 2°49.463 48.9 3.4 44 11.2
2010-09-10 07:08:54 51°15.24 2°49.468 50.5 3.4 44 11.5
2010-09-10 07:08:59 51°15.243 2°49.474 51.7 3.4 46 11.3
2010-09-10 07:09:04 51°15.246 2°49.479 53 3.4 47 11.3
2010-09-10 07:09:09 51°15.249 2°49.485 53.8 3.4 51 11.4
2010-09-10 07:09:14 51°15.253 2°49.49 54.5 3.4 51 11.4
2010-09-10 07:09:19 51°15.256 2°49.496 55 3.4 49 11.3
2010-09-10 07:09:24 51°15.259 2°49.501 55.7 3.4 48 11.4
2010-09-10 07:09:29 51°15.262 2°49.507 56.1 3.4 48 11.5
2010-09-10 07:09:34 51°15.265 2°49.513 56 3.4 50 11.6
2010-09-10 07:09:39 51°15.268 2°49.518 55.5 3.4 47 11.5
2010-09-10 07:09:44 51°15.271 2°49.524 55.2 3.4 48 11.6
2010-09-10 07:09:49 51°15.274 2°49.53 54.3 3.3 49 11.5
2010-09-10 07:09:54 51°15.277 2°49.535 53.4 3.3 47 11.4
2010-09-10 07:09:59 51°15.281 2°49.54 52.3 3.4 46 11.2
2010-09-10 07:10:04 51°15.284 2°49.545 51.3 3.4 43 11.4
2010-09-10 07:10:09 51°15.288 2°49.55 50.1 3.3 40 11.3
2010-09-10 07:10:14 51°15.292 2°49.555 48.9 3.4 40 11.4
2010-09-10 07:10:18 51°15.294 2°49.559 47.9 3.4 38 11.4
2010-09-10 07:10:24 51°15.298 2°49.564 46.6 3.4 36 11.3
2010-09-10 07:10:29 51°15.302 2°49.569 45.6 3.4 36 11.6
2010-09-10 07:10:34 51°15.306 2°49.572 44.5 3.3 32 11.6
2010-09-10 07:10:39 51°15.31 2°49.577 43.2 3.3 34 11.5
2010-09-10 07:10:44 51°15.314 2°49.58 42.2 3.4 32 11.5
2010-09-10 07:10:49 51°15.318 2°49.584 41.9 3.4 32 11.4
2010-09-10 07:10:54 51°15.323 2°49.589 41.9 3.4 30 11.5
2010-09-10 07:10:59 51°15.326 2°49.593 42.1 3.5 32 11.5
2010-09-10 07:11:04 51°15.33 2°49.597 42.5 3.4 34 11.3
2010-09-10 07:11:09 51°15.334 2°49.601 43.5 3.4 36 11.5
2010-09-10 07:11:14 51°15.338 2°49.606 44.3 3.4 36 11.6
2010-09-10 07:11:19 51°15.342 2°49.611 45.2 3.5 37 11.4
2010-09-10 07:11:24 51°15.345 2°49.615 45.9 3.4 38 11.5
2010-09-10 07:11:29 51°15.349 2°49.62 46.5 3.3 39 11.5
2010-09-10 07:11:34 51°15.352 2°49.624 47.5 3.3 39 11.5
2010-09-10 07:11:39 51°15.356 2°49.629 48 3.3 40 11.4
2010-09-10 07:11:44 51°15.36 2°49.634 48.1 3.3 42 11.5
2010-09-10 07:11:49 51°15.363 2°49.639 48.5 3.3 42 11.5
2010-09-10 07:11:54 51°15.367 2°49.644 48.6 3.4 41 11.5
2010-09-10 07:11:59 51°15.371 2°49.649 49 3.4 41 11.5
2010-09-10 07:12:04 51°15.374 2°49.653 49.2 3.4 40 11
2010-09-10 07:12:09 51°15.377 2°49.659 49.2 3.3 44 11.6
2010-09-10 07:12:14 51°15.381 2°49.663 49.5 3.3 43 11.4
2010-09-10 07:12:19 51°15.384 2°49.669 49.7 3.4 45 11.6
2010-09-10 07:12:24 51°15.388 2°49.673 49.7 3.4 43 11.5
2010-09-10 07:12:29 51°15.392 2°49.678 50 3.4 41 11.4
2010-09-10 07:12:34 51°15.395 2°49.683 49.7 3.4 43 11.4
2010-09-10 07:12:39 51°15.399 2°49.687 49.6 3.3 39 11.5
2010-09-10 07:12:44 51°15.402 2°49.692 49.3 3.4 41 11.5
2010-09-10 07:12:49 51°15.405 2°49.697 48.9 3.3 39 11.4
2010-09-10 07:12:54 51°15.408 2°49.703 48.5 3.3 43 11.6
2010-09-10 07:12:59 51°15.412 2°49.707 48.4 3.3 41 11.5
2010-09-10 07:13:04 51°15.416 2°49.712 48.5 3.3 41 11.5
2010-09-10 07:13:09 51°15.419 2°49.717 49.4 3.3 41 11.6
2010-09-10 07:13:14 51°15.422 2°49.722 50.2 3.3 43 11.6
2010-09-10 07:13:19 51°15.425 2°49.727 50.8 3.3 46 11.5
2010-09-10 07:13:24 51°15.428 2°49.733 51.6 3.3 46 11.5
2010-09-10 07:13:29 51°15.431 2°49.738 52.4 3.3 49 11.5
2010-09-10 07:13:34 51°15.434 2°49.743 53.3 3.3 47 11.4
2010-09-10 07:13:39 51°15.437 2°49.748 54.4 3.3 49 11.5
2010-09-10 07:13:45 51°15.441 2°49.755 55.3 3.3 50 11.5
2010-09-10 07:13:49 51°15.443 2°49.76 56.6 3.2 54 11.4
2010-09-10 07:13:54 51°15.445 2°49.766 58 3.3 55 11.5
2010-09-10 07:13:59 51°15.448 2°49.772 59 3.3 57 11.5
2010-09-10 07:14:04 51°15.45 2°49.778 59.8 3.2 58 11.5
2010-09-10 07:14:09 51°15.452 2°49.784 60.3 3.3 59 11.5
2010-09-10 07:14:15 51°15.455 2°49.791 61 3.2 56 11.4
2010-09-10 07:14:19 51°15.457 2°49.796 61.1 3.3 59 11.4
2010-09-10 07:14:24 51°15.459 2°49.802 61.4 3.3 58 11.3
2010-09-10 07:14:29 51°15.461 2°49.808 61.7 3.2 60 11.5
2010-09-10 07:14:34 51°15.464 2°49.814 61.7 3.2 61 11.5
2010-09-10 07:14:39 51°15.466 2°49.82 62 3.1 60 11.5
2010-09-10 07:14:44 51°15.468 2°49.827 62.4 3.2 61 11.6
2010-09-10 07:14:49 51°15.47 2°49.833 62.6 3.2 61 11.5
2010-09-10 07:14:54 51°15.473 2°49.839 63 3.2 59 11.4
2010-09-10 07:14:59 51°15.475 2°49.845 63.2 3.2 59 11.4
2010-09-10 07:15:03 51°15.476 2°49.85 63.3 3.3 63 11.5
2010-09-10 07:15:09 51°15.48 2°49.858 63.4 3.4 59 11.5
2010-09-10 07:15:14 51°15.482 2°49.864 63.7 3.2 58 11.4
2010-09-10 07:15:19 51°15.483 2°49.87 64 3.2 61 11.5
2010-09-10 07:15:24 51°15.485 2°49.877 64 3.3 64 11.3
2010-09-10 07:15:29 51°15.488 2°49.883 64.5 3.3 65 11.4
2010-09-10 07:15:34 51°15.489 2°49.89 64.7 3.3 65 11.6
2010-09-10 07:15:39 51°15.491 2°49.896 64.9 3.2 63 11.5
2010-09-10 07:15:43 51°15.493 2°49.901 65.3 3.3 67 11.5
2010-09-10 07:15:49 51°15.495 2°49.908 65.4 3.2 65 11.5
2010-09-10 07:15:54 51°15.497 2°49.915 65.7 3.2 64 11.6
2010-09-10 07:15:59 51°15.499 2°49.921 65.9 3.2 68 11.5
2010-09-10 07:16:04 51°15.501 2°49.927 66.1 3.1 65 11.5
2010-09-10 07:16:09 51°15.503 2°49.934 66.4 3.2 65 11.3
2010-09-10 07:16:14 51°15.505 2°49.94 66.9 3.1 66 11.3
2010-09-10 07:16:19 51°15.507 2°49.947 67.3 3.2 67 11.4
2010-09-10 07:16:23 51°15.508 2°49.952 67.6 3.3 67 11.4
2010-09-10 07:16:29 51°15.51 2°49.96 67.7 3.2 66 11.3
2010-09-10 07:16:34 51°15.512 2°49.966 68.3 3.2 67 11.4
2010-09-10 07:16:39 51°15.513 2°49.973 68.7 3.1 68 11.4
2010-09-10 07:16:44 51°15.515 2°49.98 69.2 3.2 67 11.4
2010-09-10 07:16:49 51°15.516 2°49.986 69.4 3.2 69 11.4
2010-09-10 07:16:54 51°15.518 2°49.993 69.9 3.1 72 11.3
2010-09-10 07:16:59 51°15.519 2°50 70.5 3.1 71 11.4
2010-09-10 07:17:03 51°15.52 2°50.005 71.2 3.2 72 11.4
2010-09-10 07:17:09 51°15.522 2°50.013 71.2 3.2 71 11.2
2010-09-10 07:17:14 51°15.523 2°50.02 71.8 3.2 73 11.3
2010-09-10 07:17:19 51°15.525 2°50.027 72.3 3.2 72 11.4
2010-09-10 07:17:24 51°15.526 2°50.034 72.9 3.3 74 11.3
2010-09-10 07:17:29 51°15.527 2°50.041 73 3.2 75 11.5
2010-09-10 07:17:34 51°15.528 2°50.047 73.6 3.1 74 11.5
2010-09-10 07:17:39 51°15.529 2°50.054 74.1 3.1 75 11.4
2010-09-10 07:17:48 51°15.531 2°50.067 75.9 3.2 77 11.5
2010-09-10 07:17:53 51°15.531 2°50.074 76.4 3.3 80 11.5
2010-09-10 07:18:56 51°15.537 2°50.163 84.2 3.3 89 -999
2010-09-10 07:19:01 51°15.537 2°50.169 84.9 3.3 91 -999
2010-09-10 07:19:06 51°15.537 2°50.177 85.3 3.3 90 -999
2010-09-10 07:19:11 51°15.537 2°50.184 86.3 3.3 92 -999
2010-09-10 07:19:16 51°15.537 2°50.19 86.8 3.2 92 -999
2010-09-10 07:19:20 51°15.537 2°50.196 87.6 3.2 92 10.9
2010-09-10 07:19:26 51°15.536 2°50.205 87.8 3.3 96 11.1
2010-09-10 07:19:30 51°15.536 2°50.211 88.3 3.3 95 11.3
2010-09-10 07:19:35 51°15.535 2°50.218 89.2 3.2 99 11.3
2010-09-10 07:19:40 51°15.534 2°50.225 89.8 3.2 100 11.4
2010-09-10 07:19:45 51°15.533 2°50.231 90.4 3.2 101 11.4
2010-09-10 07:19:50 51°15.533 2°50.238 91.5 3.2 99 11.4
2010-09-10 07:19:55 51°15.531 2°50.246 92.3 3.3 100 11.4
2010-09-10 07:19:59 51°15.531 2°50.252 92.9 3.3 100 11.4
2010-09-10 07:20:04 51°15.53 2°50.259 93.7 3.3 102 11.4
2010-09-10 07:20:09 51°15.528 2°50.266 93.8 3.3 104 11.4
2010-09-10 07:20:14 51°15.527 2°50.273 94.4 3.3 103 11.3
2010-09-10 07:20:19 51°15.526 2°50.28 94.3 3.3 104 11.4
2010-09-10 07:20:24 51°15.525 2°50.287 93.9 3.3 104 11.3
2010-09-10 07:20:28 51°15.524 2°50.292 93.8 3.2 103 11.3
2010-09-10 07:20:33 51°15.523 2°50.299 93.3 3.2 104 11.3
2010-09-10 07:20:38 51°15.522 2°50.306 93.2 3.2 101 11.3
2010-09-10 07:20:43 51°15.521 2°50.313 93 3.2 104 11.4
2010-09-10 07:20:48 51°15.52 2°50.32 93.2 3.3 103 11.2
2010-09-10 07:20:53 51°15.519 2°50.327 94 3.2 103 11.3
2010-09-10 07:20:58 51°15.518 2°50.334 94.4 3.2 104 11.4
2010-09-10 07:21:03 51°15.516 2°50.34 95.3 3.1 106 11.3
2010-09-10 07:21:07 51°15.515 2°50.345 96.4 3.1 110 11.4
2010-09-10 07:21:12 51°15.513 2°50.352 97.4 3.1 109 11.3
2010-09-10 07:21:17 51°15.512 2°50.358 98.5 3.1 114 11.3
2010-09-10 07:21:22 51°15.51 2°50.364 99.4 3 114 11.4
2010-09-10 07:21:27 51°15.508 2°50.37 100.9 3.1 116 11.3
2010-09-10 07:21:31 51°15.506 2°50.375 102 2.9 118 11.3
2010-09-10 07:21:37 51°15.504 2°50.381 102.9 2.9 120 11.3
2010-09-10 07:21:42 51°15.502 2°50.387 104 2.9 122 11.3
2010-09-10 07:21:47 51°15.5 2°50.392 105.6 2.9 124 11.3
2010-09-10 07:21:52 51°15.498 2°50.398 108.1 2.9 124 11.3
2010-09-10 07:21:57 51°15.495 2°50.403 109.7 2.9 127 11.4
2010-09-10 07:22:02 51°15.492 2°50.408 112 2.9 129 11.3
2010-09-10 07:22:07 51°15.489 2°50.412 114.4 2.9 135 11.4
2010-09-10 07:22:12 51°15.487 2°50.417 116.9 2.8 135 11.3
2010-09-10 07:22:17 51°15.483 2°50.421 119.1 3 138 11.4
2010-09-10 07:22:22 51°15.48 2°50.425 120.6 2.9 140 11.3
2010-09-10 07:22:27 51°15.477 2°50.429 122.5 3 142 11.3
2010-09-10 07:22:32 51°15.473 2°50.433 124.1 3 144 11.4
2010-09-10 07:22:37 51°15.47 2°50.437 125.2 3 145 11.3
2010-09-10 07:22:42 51°15.466 2°50.44 127 3.1 149 11.4
2010-09-10 07:22:47 51°15.462 2°50.444 128.1 3.1 148 11.3
2010-09-10 07:22:52 51°15.458 2°50.447 129.7 3.1 152 11.4
2010-09-10 07:22:57 51°15.455 2°50.451 131.5 3.1 148 11.3
2010-09-10 07:23:02 51°15.45 2°50.454 133.5 3.2 155 11.4
2010-09-10 07:23:07 51°15.446 2°50.456 135.1 3.3 156 11.2
2010-09-10 07:23:12 51°15.442 2°50.459 137.9 3.3 161 11.3
2010-09-10 07:23:17 51°15.437 2°50.461 139.6 3.3 162 11.4
2010-09-10 07:23:22 51°15.433 2°50.463 142.2 3.4 163 11.3
2010-09-10 07:23:27 51°15.429 2°50.465 144.2 3.3 163 11.4
2010-09-10 07:23:32 51°15.424 2°50.467 146.1 3.4 165 11.3
2010-09-10 07:23:37 51°15.42 2°50.468 147.4 3.4 168 11.2
2010-09-10 07:23:42 51°15.415 2°50.47 149.1 3.4 169 11.4
2010-09-10 07:23:47 51°15.411 2°50.471 150.4 3.4 169 11.2
2010-09-10 07:23:52 51°15.406 2°50.472 152.4 3.4 171 11.3
2010-09-10 07:23:57 51°15.401 2°50.473 154 3.5 173 11.3
2010-09-10 07:24:02 51°15.396 2°50.473 156.1 3.4 176 11.3
2010-09-10 07:24:07 51°15.391 2°50.474 158 3.4 176 11.3
2010-09-10 07:24:12 51°15.387 2°50.474 159.7 3.4 178 11.3
2010-09-10 07:24:17 51°15.381 2°50.474 161.6 3.5 180 11.4
2010-09-10 07:24:22 51°15.376 2°50.474 163.5 3.6 183 11.4
2010-09-10 07:24:27 51°15.371 2°50.473 165.5 3.6 186 11.3
2010-09-10 07:24:32 51°15.366 2°50.472 167.3 3.7 185 11.5
2010-09-10 07:24:37 51°15.362 2°50.471 169.4 3.6 188 11.4
2010-09-10 07:24:42 51°15.356 2°50.47 171.4 3.7 191 11.4
2010-09-10 07:24:47 51°15.351 2°50.468 173.7 3.7 192 11.4
2010-09-10 07:24:51 51°15.347 2°50.466 176.1 3.8 196 11.2
2010-09-10 07:24:57 51°15.341 2°50.464 178.4 3.8 194 11.3
2010-09-10 07:25:02 51°15.336 2°50.461 180.1 3.9 198 11.3
2010-09-10 07:25:07 51°15.331 2°50.458 182.3 3.8 198 11.4
2010-09-10 07:25:12 51°15.326 2°50.455 184.4 3.8 202 11.3
2010-09-10 07:25:17 51°15.321 2°50.452 186.5 3.8 201 11.4
2010-09-10 07:25:22 51°15.317 2°50.448 188.3 3.8 204 11.3
2010-09-10 07:25:27 51°15.312 2°50.445 190.2 3.6 207 11.2
2010-09-10 07:25:32 51°15.308 2°50.442 191.8 3.6 205 11.3
2010-09-10 07:25:37 51°15.303 2°50.438 193.2 3.6 209 11.3
2010-09-10 07:25:42 51°15.299 2°50.434 194.8 3.4 211 11.2
2010-09-10 07:25:47 51°15.295 2°50.43 196 3.3 211 11.3
2010-09-10 07:25:52 51°15.291 2°50.427 197 3.3 211 11.1
2010-09-10 07:25:57 51°15.287 2°50.424 198 3.1 210 11.5
2010-09-10 07:26:02 51°15.283 2°50.42 198.5 3.1 210 11.4
2010-09-10 07:26:07 51°15.278 2°50.417 199.2 3 209 11
2010-09-10 07:26:12 51°15.274 2°50.413 199.7 3 212 11.3
2010-09-10 07:26:17 51°15.271 2°50.409 200.3 3 212 11.3
2010-09-10 07:26:22 51°15.267 2°50.406 201 2.9 214 11.2
2010-09-10 07:26:27 51°15.264 2°50.403 201.7 2.8 212 11.5
2010-09-10 07:26:32 51°15.261 2°50.399 202.8 2.9 218 11.3
2010-09-10 07:26:37 51°15.258 2°50.395 203.7 2.9 216 11
2010-09-10 07:26:42 51°15.254 2°50.391 204.8 2.9 217 11.1
2010-09-10 07:26:47 51°15.251 2°50.387 205.8 2.8 217 11.2
2010-09-10 07:26:52 51°15.248 2°50.384 207.3 2.8 219 11.4
2010-09-10 07:26:57 51°15.245 2°50.38 208.8 2.7 219 11.1
2010-09-10 07:27:02 51°15.242 2°50.376 209.5 2.8 217 11.2
2010-09-10 07:27:07 51°15.24 2°50.372 210.4 2.8 220 11.3
2010-09-10 07:27:12 51°15.237 2°50.368 211 2.7 220 11.2
2010-09-10 07:27:17 51°15.235 2°50.364 212 2.6 223 11.3
2010-09-10 07:27:22 51°15.232 2°50.36 212.9 2.6 225 11.2
2010-09-10 07:27:27 51°15.23 2°50.356 213.7 2.6 227 11.2
2010-09-10 07:27:32 51°15.227 2°50.352 214.8 2.6 223 11.4
2010-09-10 07:27:37 51°15.224 2°50.347 215.9 2.8 227 11.3
2010-09-10 07:27:42 51°15.221 2°50.343 217.1 2.9 224 11.3
2010-09-10 07:27:47 51°15.218 2°50.338 218.7 3.1 228 11.3
2010-09-10 07:27:52 51°15.215 2°50.333 220.3 3.2 230 11.2
2010-09-10 07:27:57 51°15.212 2°50.327 222.3 3.4 230 11.1
2010-09-10 07:28:02 51°15.209 2°50.321 224.8 3.5 231 11.1
2010-09-10 07:28:07 51°15.206 2°50.315 227 3.6 233 11.1
2010-09-10 07:28:12 51°15.203 2°50.308 229.2 3.6 234 11.2
2010-09-10 07:28:17 51°15.201 2°50.302 231.8 3.6 236 11.3
2010-09-10 07:28:22 51°15.198 2°50.296 234.2 3.4 238 11.3
2010-09-10 07:28:27 51°15.196 2°50.289 236.5 3.3 239 11.3
2010-09-10 07:28:32 51°15.194 2°50.283 238.5 3.2 242 11.1
2010-09-10 07:28:37 51°15.192 2°50.277 240.3 3.1 246 11.1
2010-09-10 07:28:42 51°15.19 2°50.271 242.3 3.1 246 11.1
2010-09-10 07:28:47 51°15.189 2°50.265 244 3 246 11.5
2010-09-10 07:28:52 51°15.187 2°50.258 245.5 3 247 11.4
2010-09-10 07:28:57 51°15.185 2°50.252 246.5 3.2 247 11.2
2010-09-10 07:29:02 51°15.183 2°50.245 247.6 3.4 246 11.3
2010-09-10 07:29:07 51°15.181 2°50.237 248.3 3.6 247 11.3
2010-09-10 07:29:12 51°15.18 2°50.229 248.8 3.8 250 11.3
2010-09-10 07:29:17 51°15.177 2°50.22 249.3 4.1 249 11.4
2010-09-10 07:29:22 51°15.175 2°50.211 249.8 4.5 248 11.3
2010-09-10 07:29:27 51°15.172 2°50.2 249.9 5.1 246 11.3
2010-09-10 07:29:32 51°15.17 2°50.189 249.9 5.5 250 11.3
2010-09-10 07:29:37 51°15.167 2°50.176 249.8 6 250 11.1
2010-09-10 07:29:42 51°15.164 2°50.162 249.3 6.6 250 11.3
2010-09-10 07:29:47 51°15.16 2°50.148 248.9 7.1 249 11.2
2010-09-10 07:29:51 51°15.157 2°50.135 247.6 7.7 248 11.1
2010-09-10 07:29:57 51°15.152 2°50.115 246.1 8.1 247 11.2
2010-09-10 07:30:02 51°15.147 2°50.097 245 8.5 246 11.2
2010-09-10 07:30:07 51°15.142 2°50.08 243.8 8.7 245 11.1
2010-09-10 07:30:12 51°15.136 2°50.062 242.4 9 244 11.2
2010-09-10 07:30:17 51°15.129 2°50.044 241.1 9.3 242 11.1
2010-09-10 07:30:22 51°15.123 2°50.026 239.4 9.6 240 11.2
2010-09-10 07:30:27 51°15.115 2°50.008 238 9.6 239 11.1
2010-09-10 07:30:32 51°15.108 2°49.99 236.8 9.8 237 11.1
2010-09-10 07:30:37 51°15.1 2°49.971 235.6 10 236 11.2
2010-09-10 07:30:42 51°15.092 2°49.953 235.2 10.1 236 11.2
2010-09-10 07:30:47 51°15.084 2°49.934 234.7 10 235 11.2
2010-09-10 07:30:52 51°15.077 2°49.917 234.3 9.3 236 11.2
2010-09-10 07:30:57 51°15.07 2°49.901 233.8 8.9 235 11.2
2010-09-10 07:31:02 51°15.063 2°49.886 232.6 8.3 234 11.3
2010-09-10 07:31:07 51°15.057 2°49.872 231 8 234 11.2
2010-09-10 07:31:12 51°15.05 2°49.86 228.9 7.5 231 11.1
2010-09-10 07:31:17 51°15.044 2°49.848 227.8 7.1 230 11.3
2010-09-10 07:31:22 51°15.038 2°49.837 226.1 6.7 230 11.1
2010-09-10 07:31:27 51°15.032 2°49.826 226 6.5 230 11.1
2010-09-10 07:31:32 51°15.027 2°49.816 226.7 6.1 231 11.3
2010-09-10 07:31:37 51°15.022 2°49.807 227.7 5.7 232 11.1
2010-09-10 07:31:42 51°15.018 2°49.797 229.6 5.4 231 11.3
2010-09-10 07:31:47 51°15.013 2°49.788 230.9 5.2 233 11.3
2010-09-10 07:31:52 51°15.009 2°49.779 232.6 5 234 11.3
2010-09-10 07:31:57 51°15.006 2°49.769 234.6 4.9 236 11.2
2010-09-10 07:32:02 51°15.003 2°49.76 236.7 4.7 240 11
2010-09-10 07:32:07 51°14.999 2°49.752 238.9 4.5 240 11.1
2010-09-10 07:32:11 51°14.997 2°49.745 240.8 4.3 239 11.3
2010-09-10 07:32:17 51°14.993 2°49.735 241.8 4.2 242 11.4
2010-09-10 07:32:22 51°14.991 2°49.727 243.6 4.1 243 11.1
2010-09-10 07:32:27 51°14.988 2°49.72 244.3 3.9 243 11.2
2010-09-10 07:32:32 51°14.986 2°49.713 245.4 3.8 244 11.3
2010-09-10 07:32:37 51°14.984 2°49.705 246.1 3.7 245 11.3
2010-09-10 07:32:42 51°14.982 2°49.698 247 3.6 245 11.1
2010-09-10 07:32:47 51°14.979 2°49.691 247.6 3.5 244 11.1
2010-09-10 07:32:52 51°14.977 2°49.683 248.3 3.6 244 11.2
2010-09-10 07:32:57 51°14.975 2°49.676 247.8 3.6 245 11.2
2010-09-10 07:33:02 51°14.973 2°49.669 246.4 3.5 243 11.2
2010-09-10 07:33:07 51°14.971 2°49.662 244.2 3.6 243 11.2
2010-09-10 07:33:12 51°14.968 2°49.656 241.6 3.5 241 11.2
2010-09-10 07:33:17 51°14.966 2°49.65 238.4 3.4 240 11.3
2010-09-10 07:33:22 51°14.963 2°49.643 235.2 3.5 238 11.1
2010-09-10 07:33:27 51°14.96 2°49.636 231.1 3.7 233 11.1
2010-09-10 07:33:32 51°14.956 2°49.63 225.8 3.8 230 11.2
2010-09-10 07:33:37 51°14.953 2°49.624 220.7 3.8 225 11
2010-09-10 07:33:42 51°14.948 2°49.619 212.7 3.9 218 11.3
2010-09-10 07:33:47 51°14.943 2°49.614 206.2 4 213 11.1
2010-09-10 07:33:52 51°14.939 2°49.61 198.9 3.9 209 11.3
2010-09-10 07:33:57 51°14.934 2°49.606 193.6 3.9 202 11.2
2010-09-10 07:34:02 51°14.928 2°49.604 185.1 4 197 11.2
2010-09-10 07:34:07 51°14.923 2°49.602 177.2 3.9 189 11.1
2010-09-10 07:34:12 51°14.916 2°49.602 168.9 4.1 185 11.1
2010-09-10 07:34:17 51°14.911 2°49.604 162.3 4.1 175 11.1
2010-09-10 07:34:22 51°14.905 2°49.606 152 4.1 167 11.1
2010-09-10 07:34:27 51°14.901 2°49.609 143.4 3.8 157 11.1
2010-09-10 07:34:32 51°14.896 2°49.615 135.2 3.9 147 11.2
2010-09-10 07:34:36 51°14.893 2°49.619 126.7 3.6 139 11.1
2010-09-10 07:34:42 51°14.888 2°49.626 120.6 3.7 132 11.1
2010-09-10 07:34:47 51°14.886 2°49.634 112.1 3.7 120 11
2010-09-10 07:34:52 51°14.884 2°49.642 102.7 3.7 110 11
2010-09-10 07:34:56 51°14.883 2°49.649 95.8 3.9 103 11
2010-09-10 07:35:02 51°14.883 2°49.659 88.7 4 96 11
2010-09-10 07:35:07 51°14.883 2°49.668 83.9 4.2 89 11.1
2010-09-10 07:35:11 51°14.884 2°49.677 78.4 4.7 81 11
2010-09-10 07:35:16 51°14.886 2°49.688 76.3 5.3 78 11.1
2010-09-10 07:35:23 51°14.889 2°49.705 74.2 5.7 74 10.9
2010-09-10 07:35:26 51°14.89 2°49.713 72.9 6.1 76 11
2010-09-10 07:35:31 51°14.892 2°49.727 73.3 6.6 78 11
2010-09-10 07:35:36 51°14.894 2°49.742 75.4 6.9 77 11
2010-09-10 07:35:42 51°14.896 2°49.761 76.3 7.1 81 10.9
2010-09-10 07:35:47 51°14.898 2°49.777 78.5 7.4 80 11
2010-09-10 07:35:51 51°14.898 2°49.79 80.7 7.6 85 11
2010-09-10 07:35:56 51°14.898 2°49.807 83.7 7.8 89 11
2010-09-10 07:36:02 51°14.899 2°49.828 85.9 7.9 88 10.9
2010-09-10 07:36:07 51°14.897 2°49.846 88 8.1 95 10.9
2010-09-10 07:36:12 51°14.897 2°49.864 90.5 8.2 94 11
2010-09-10 07:36:16 51°14.895 2°49.879 91.2 8.3 96 10.8
2010-09-10 07:36:21 51°14.894 2°49.897 92.8 8.4 98 10.9
2010-09-10 07:36:27 51°14.892 2°49.918 94.1 8.4 99 10.8
2010-09-10 07:36:32 51°14.89 2°49.937 94.6 8.4 98 11
2010-09-10 07:36:37 51°14.888 2°49.955 95.6 8.4 102 10.9
2010-09-10 07:36:42 51°14.885 2°49.974 96.9 8.6 100 10.9
2010-09-10 07:36:48 51°14.883 2°49.996 96 8.6 101 10.8
2010-09-10 07:36:52 51°14.88 2°50.012 96.6 8.7 102 10.7
2010-09-10 07:36:56 51°14.879 2°50.027 96.9 8.7 100 10.7
2010-09-10 07:37:02 51°14.876 2°50.049 96.6 8.8 102 10.8
2010-09-10 07:37:07 51°14.874 2°50.068 96.9 8.7 100 10.8
2010-09-10 07:37:12 51°14.871 2°50.088 97 9.1 102 10.7
2010-09-10 07:37:17 51°14.869 2°50.108 96.6 9.2 100 10.8
2010-09-10 07:37:22 51°14.866 2°50.128 96.6 9.5 101 10.7
2010-09-10 07:37:27 51°14.864 2°50.15 96.1 9.6 97 10.6
2010-09-10 07:37:32 51°14.861 2°50.171 95.7 9.8 102 10.7
2010-09-10 07:37:37 51°14.859 2°50.193 96.3 10 99 10.6
2010-09-10 07:37:43 51°14.856 2°50.219 96.2 10.2 101 10.6
2010-09-10 07:37:47 51°14.854 2°50.237 96.6 10.1 100 10.5
2010-09-10 07:37:52 51°14.852 2°50.259 96.1 10 99 10.6
2010-09-10 07:37:57 51°14.849 2°50.281 95.8 10.2 100 10.5
2010-09-10 07:38:02 51°14.847 2°50.303 95.9 10.3 100 10.5
2010-09-10 07:38:08 51°14.844 2°50.33 95.6 10.2 100 10.5
2010-09-10 07:38:12 51°14.842 2°50.347 95.8 10.2 99 10.4
2010-09-10 07:38:17 51°14.839 2°50.37 96.4 10.5 102 10.5
2010-09-10 07:38:23 51°14.837 2°50.397 96.2 10.5 98 10.4
2010-09-10 07:38:28 51°14.833 2°50.419 95.8 10.3 102 10.5
2010-09-10 07:38:32 51°14.832 2°50.437 96 10.3 98 10.5
2010-09-10 07:38:37 51°14.83 2°50.46 95.2 10.3 100 10.4
2010-09-10 07:38:42 51°14.827 2°50.483 95.8 10.5 100 10.5
2010-09-10 07:38:48 51°14.824 2°50.511 95.5 10.5 99 10.3
2010-09-10 07:38:52 51°14.822 2°50.529 95.8 10.5 101 10.3
2010-09-10 07:38:57 51°14.82 2°50.551 95.8 10.5 100 10.3
2010-09-10 07:39:02 51°14.818 2°50.574 95.3 10.3 99 10.2
2010-09-10 07:39:07 51°14.816 2°50.597 95 10.4 98 10.2
2010-09-10 07:39:12 51°14.814 2°50.62 94.7 10.4 99 10.2
2010-09-10 07:39:17 51°14.812 2°50.642 94.8 10.3 98 10.2
2010-09-10 07:39:22 51°14.811 2°50.665 93.6 10.3 95 10.2
2010-09-10 07:39:27 51°14.809 2°50.688 92.4 10.3 96 10.2
2010-09-10 07:39:32 51°14.808 2°50.711 91.7 10.3 94 10.1
2010-09-10 07:39:37 51°14.807 2°50.734 91 10.3 94 10.1
2010-09-10 07:39:43 51°14.806 2°50.761 90.2 10.3 92 10.1
2010-09-10 07:39:47 51°14.806 2°50.779 89.6 10.3 93 10.1
2010-09-10 07:39:52 51°14.805 2°50.802 89.4 10.3 93 10.1
2010-09-10 07:39:57 51°14.804 2°50.825 89.6 10.4 95 10.1
2010-09-10 07:40:02 51°14.803 2°50.848 90.4 10.5 93 9.9
2010-09-10 07:40:08 51°14.801 2°50.876 89.9 10.5 94 10
2010-09-10 07:40:12 51°14.801 2°50.894 89.7 10.5 94 9.9
2010-09-10 07:40:16 51°14.8 2°50.913 89.4 10.3 93 9.8
2010-09-10 07:40:22 51°14.8 2°50.94 88.7 10.2 92 9.8
2010-09-10 07:40:27 51°14.799 2°50.963 88.6 10.2 92 9.7
2010-09-10 07:40:32 51°14.799 2°50.985 88.3 10.1 93 9.7
2010-09-10 07:40:37 51°14.798 2°51.007 88.6 10.1 94 9.7
2010-09-10 07:40:42 51°14.797 2°51.029 89.1 9.8 94 9.8
2010-09-10 07:40:48 51°14.796 2°51.054 89.4 9.5 93 9.7
2010-09-10 07:40:52 51°14.795 2°51.071 89.6 9.4 97 9.7
2010-09-10 07:40:57 51°14.794 2°51.091 90.1 9.2 94 9.6
2010-09-10 07:41:02 51°14.793 2°51.111 90 9 95 9.7
2010-09-10 07:41:08 51°14.791 2°51.135 89.5 8.9 96 9.8
2010-09-10 07:41:12 51°14.79 2°51.15 90.8 8.8 99 9.5
2010-09-10 07:41:17 51°14.786 2°51.168 95.3 8.6 106 9.6
2010-09-10 07:41:22 51°14.781 2°51.185 101.6 8.5 112 9.6
2010-09-10 07:41:28 51°14.776 2°51.205 105.5 8.3 115 9.5
2010-09-10 07:41:32 51°14.772 2°51.218 108.1 8.1 116 9.5
2010-09-10 07:41:37 51°14.765 2°51.234 109.9 8.2 121 9.4
2010-09-10 07:41:43 51°14.759 2°51.252 111.9 7.9 120 9.3
2010-09-10 07:41:47 51°14.754 2°51.263 112.7 7.8 122 9.3
2010-09-10 07:41:52 51°14.749 2°51.278 113.3 7.8 120 9.3
2010-09-10 07:41:57 51°14.744 2°51.292 112.6 7.4 121 9.1
2010-09-10 07:42:03 51°14.739 2°51.31 111.3 7.3 116 9.3
2010-09-10 07:42:07 51°14.736 2°51.321 108.3 7.1 115 9.1
2010-09-10 07:42:12 51°14.732 2°51.335 106.9 6.9 110 9
2010-09-10 07:42:17 51°14.728 2°51.349 104.2 6.8 111 9.1
2010-09-10 07:42:22 51°14.725 2°51.363 102 6.7 109 9.1
2010-09-10 07:42:27 51°14.723 2°51.377 99.7 6.6 105 9.1
2010-09-10 07:42:32 51°14.721 2°51.391 97.7 6.5 105 9.1
2010-09-10 07:42:37 51°14.719 2°51.404 95.9 6.3 104 9.1
2010-09-10 07:42:42 51°14.718 2°51.418 94.7 6 99 9
2010-09-10 07:42:47 51°14.716 2°51.431 93.2 5.9 101 9.1
2010-09-10 07:42:52 51°14.716 2°51.443 91.3 5.4 92 9
2010-09-10 07:42:56 51°14.716 2°51.452 86.3 5 88 9
2010-09-10 07:43:02 51°14.717 2°51.464 79.4 4.5 79 9
2010-09-10 07:43:07 51°14.72 2°51.472 72.7 4.1 69 8.9
2010-09-10 07:43:12 51°14.722 2°51.48 66.4 4 63 9
2010-09-10 07:43:16 51°14.724 2°51.486 60.5 3.7 57 9
2010-09-10 07:43:22 51°14.728 2°51.492 54.5 3.3 47 8.9
2010-09-10 07:43:27 51°14.731 2°51.497 48.7 3.3 43 9
2010-09-10 07:43:32 51°14.735 2°51.501 43.3 3.1 33 9
2010-09-10 07:43:36 51°14.737 2°51.503 38.8 2.9 30 8.9
2010-09-10 07:43:42 51°14.742 2°51.506 35.1 2.7 25 9
2010-09-10 07:43:47 51°14.745 2°51.508 31.7 2.6 19 9.2
2010-09-10 07:43:52 51°14.748 2°51.51 28.4 2.6 16 9.1
2010-09-10 07:43:56 51°14.751 2°51.511 25.6 2.5 14 9.2
2010-09-10 07:44:02 51°14.755 2°51.512 22.9 2.3 11 9.1
2010-09-10 07:44:07 51°14.758 2°51.513 21 2.4 7 9
2010-09-10 07:44:12 51°14.761 2°51.513 20 2.3 6 9.2
2010-09-10 07:44:17 51°14.764 2°51.514 19 2.1 6 9.3
2010-09-10 07:44:22 51°14.767 2°51.514 18.2 1.9 2 9.2
2010-09-10 07:44:27 51°14.77 2°51.514 17.4 1.8 -999 9.4
2010-09-10 07:44:32 51°14.772 2°51.513 16.1 1.8 353 9.2
2010-09-10 07:44:37 51°14.774 2°51.513 14.2 1.6 350 9.2
2010-09-10 07:44:42 51°14.776 2°51.512 11.3 1.2 336 9.2
2010-09-10 07:44:47 51°14.777 2°51.51 7.7 1 324 9.3
2010-09-10 07:44:52 51°14.777 2°51.509 3.7 0.7 299 9.3
2010-09-10 07:44:56 51°14.778 2°51.508 -999 0.7 281 9.2
2010-09-10 07:45:02 51°14.778 2°51.506 356.7 0.7 270 9.1
2010-09-10 07:45:07 51°14.777 2°51.504 354.1 0.7 260 9.4
2010-09-10 07:45:12 51°14.777 2°51.502 352.1 0.8 256 9.3
2010-09-10 07:45:16 51°14.776 2°51.501 350.2 0.7 251 9
2010-09-10 07:45:22 51°14.776 2°51.5 349.1 0.7 244 9.3
2010-09-10 07:45:28 51°14.776 2°51.499 348.1 0.6 246 9.2
2010-09-10 07:45:32 51°14.775 2°51.497 346.7 0.7 249 9.2
2010-09-10 07:45:36 51°14.775 2°51.496 345.6 0.8 253 9.1
2010-09-10 07:45:41 51°14.775 2°51.494 344.8 0.7 254 9.2
2010-09-10 07:45:47 51°14.774 2°51.493 344 0.7 249 9.3
2010-09-10 07:45:52 51°14.774 2°51.492 342.9 0.7 246 9.3
2010-09-10 07:45:56 51°14.773 2°51.49 341.9 0.7 248 9.1
2010-09-10 07:46:01 51°14.773 2°51.489 341.1 0.7 251 9.4
2010-09-10 07:46:07 51°14.772 2°51.488 340.2 0.7 243 9.2
2010-09-10 07:46:12 51°14.772 2°51.487 339.5 0.6 230 9.3
2010-09-10 07:46:16 51°14.771 2°51.486 338.6 0.7 229 9.4
2010-09-10 07:46:22 51°14.771 2°51.484 337.6 0.7 228 9.1
2010-09-10 07:46:26 51°14.771 2°51.483 337.2 0.7 238 9.2
2010-09-10 07:46:32 51°14.77 2°51.482 336.9 0.6 238 9.4
2010-09-10 07:46:36 51°14.77 2°51.482 336.4 0.5 239 9.4
2010-09-10 07:46:42 51°14.769 2°51.48 335.9 0.6 235 9.2
2010-09-10 07:46:48 51°14.769 2°51.478 335.5 0.6 239 9.3
2010-09-10 07:46:53 51°14.768 2°51.477 335.4 0.6 244 9.2
2010-09-10 07:46:57 51°14.768 2°51.476 335 0.6 239 9.3
2010-09-10 07:47:02 51°14.767 2°51.474 334.7 0.7 234 9.2
2010-09-10 07:47:07 51°14.766 2°51.473 334.5 0.6 231 9.2
2010-09-10 07:47:12 51°14.765 2°51.472 334.1 0.7 224 9.3
2010-09-10 07:47:17 51°14.764 2°51.471 333.9 0.7 227 9.3
2010-09-10 07:47:22 51°14.763 2°51.469 333.6 0.8 231 9.4
2010-09-10 07:47:27 51°14.763 2°51.468 333.4 0.5 229 9.5
2010-09-10 07:47:32 51°14.763 2°51.467 333.2 0.7 235 9.3
2010-09-10 07:47:37 51°14.762 2°51.466 333.1 0.7 236 9
2010-09-10 07:47:41 51°14.761 2°51.465 333.5 0.7 215 9.3
2010-09-10 07:47:47 51°14.76 2°51.463 333.8 0.8 218 9.3
2010-09-10 07:47:52 51°14.759 2°51.463 333.9 0.6 226 9.4
2010-09-10 07:47:57 51°14.758 2°51.462 334.1 0.7 215 9.3
2010-09-10 07:48:02 51°14.758 2°51.46 334.3 0.7 224 9.4